Map

Track Data

SID SEASON NUMBER BASIN SUBBASIN NAME ISO_TIME NATURE LAT LON WMO_WIND WMO_PRES WMO_AGENCY TRACK_TYPE DIST2LAND LANDFALL IFLAG USA_AGENCY USA_ATCF_ID USA_LAT USA_LON USA_RECORD USA_STATUS USA_WIND USA_PRES USA_SSHS USA_R34_NE USA_R34_SE USA_R34_SW USA_R34_NW USA_R50_NE USA_R50_SE USA_R50_SW USA_R50_NW USA_R64_NE USA_R64_SE USA_R64_SW USA_R64_NW USA_POCI USA_ROCI USA_RMW USA_EYE TOKYO_LAT TOKYO_LON TOKYO_GRADE TOKYO_WIND TOKYO_PRES TOKYO_R50_DIR TOKYO_R50_LONG TOKYO_R50_SHORT TOKYO_R30_DIR TOKYO_R30_LONG TOKYO_R30_SHORT TOKYO_LAND CMA_LAT CMA_LON CMA_CAT CMA_WIND CMA_PRES HKO_LAT HKO_LON HKO_CAT HKO_WIND HKO_PRES NEWDELHI_LAT NEWDELHI_LON NEWDELHI_GRADE NEWDELHI_WIND NEWDELHI_PRES NEWDELHI_CI NEWDELHI_DP NEWDELHI_POCI REUNION_LAT REUNION_LON REUNION_TYPE REUNION_WIND REUNION_PRES REUNION_TNUM REUNION_CI REUNION_RMW REUNION_R34_NE REUNION_R34_SE REUNION_R34_SW REUNION_R34_NW REUNION_R50_NE REUNION_R50_SE REUNION_R50_SW REUNION_R50_NW REUNION_R64_NE REUNION_R64_SE REUNION_R64_SW REUNION_R64_NW BOM_LAT BOM_LON BOM_TYPE BOM_WIND BOM_PRES BOM_TNUM BOM_CI BOM_RMW BOM_R34_NE BOM_R34_SE BOM_R34_SW BOM_R34_NW BOM_R50_NE BOM_R50_SE BOM_R50_SW BOM_R50_NW BOM_R64_NE BOM_R64_SE BOM_R64_SW BOM_R64_NW BOM_ROCI BOM_POCI BOM_EYE BOM_POS_METHOD BOM_PRES_METHOD NADI_LAT NADI_LON NADI_CAT NADI_WIND NADI_PRES WELLINGTON_LAT WELLINGTON_LON WELLINGTON_WIND WELLINGTON_PRES DS824_LAT DS824_LON DS824_STAGE DS824_WIND DS824_PRES TD9636_LAT TD9636_LON TD9636_STAGE TD9636_WIND TD9636_PRES TD9635_LAT TD9635_LON TD9635_WIND TD9635_PRES TD9635_ROCI NEUMANN_LAT NEUMANN_LON NEUMANN_CLASS NEUMANN_WIND NEUMANN_PRES MLC_LAT MLC_LON MLC_CLASS MLC_WIND MLC_PRES USA_GUST BOM_GUST BOM_GUST_PER REUNION_GUST REUNION_GUST_PER USA_SEAHGT USA_SEARAD_NE USA_SEARAD_SE USA_SEARAD_SW USA_SEARAD_NW STORM_SPEED STORM_DIR
1959072S13065 1959 27 SI MM NOT_NAMED 1959-03-13 06:00:00 TS -12.6000 65.0000 main 1144 1130 O________OO___ jtwc_sh SH261959 -12.6000 65.0000 -1 -12.6000 65.0000 TC 25 -12.6000 65.0000 7 4 256
1959072S13065 1959 27 SI MM NOT_NAMED 1959-03-13 09:00:00 TS -12.6505 64.8016 main 1121 1107 P________PP___ SH261959 -12.6475 64.8000 -1 -12.6475 64.8000 TC 25 -12.6564 64.8048 7 4 255
1959072S13065 1959 27 SI MM NOT_NAMED 1959-03-13 12:00:00 TS -12.7034 64.6025 main 1107 1085 O________OP___ jtwc_sh SH261959 -12.7000 64.6000 -1 -12.7000 64.6000 TC 25 -12.7102 64.6076 7 4 255
1959072S13065 1959 27 SI MM NOT_NAMED 1959-03-13 15:00:00 TS -12.7579 64.4022 main 1085 1071 P________PP___ SH261959 -12.7575 64.4000 -1 -12.7575 64.4000 TC 25 -12.7589 64.4066 7 4 256
1959072S13065 1959 27 SI MM NOT_NAMED 1959-03-13 18:00:00 TS -12.8000 64.2000 main 1071 1057 O________OO___ jtwc_sh SH261959 -12.8000 64.2000 -1 -12.8000 64.2000 TC 25 -12.8000 64.2000 1 4 262
1959072S13065 1959 27 SI MM NOT_NAMED 1959-03-13 21:00:00 TS -12.8106 64.0048 main 1057 1044 P________PP___ SH261959 -12.7999 64.0150 -1 -12.7999 64.0150 TC 25 -12.8320 63.9846 1 4 267
1959072S13065 1959 27 SI MM NOT_NAMED 1959-03-14 00:00:00 TS -12.8191 63.7841 main 1044 1015 O________OP___ jtwc_sh SH261959 -12.8000 63.8000 -1 -12.8000 63.8000 TC 25 -12.8572 63.7524 1 5 264
1959072S13065 1959 27 SI MM NOT_NAMED 1959-03-14 03:00:00 TS -12.8596 63.5130 main 1015 996 P________PP___ SH261959 -12.8500 63.5225 -1 -12.8500 63.5225 TC 25 -12.8788 63.4940 1 6 262
1959072S13065 1959 27 SI MM NOT_NAMED 1959-03-14 06:00:00 TS -12.9000 63.2000 main 996 977 O________OO___ jtwc_sh SH261959 -12.9000 63.2000 -1 -12.9000 63.2000 TC 25 -12.9000 63.2000 1 6 265
1959072S13065 1959 27 SI MM NOT_NAMED 1959-03-14 09:00:00 TS -12.9097 62.8636 main 977 954 P________PP___ SH261959 -12.9000 62.8649 -1 -12.9000 62.8649 TC 25 -12.9291 62.8610 1 7 268
1959072S13065 1959 27 SI MM NOT_NAMED 1959-03-14 12:00:00 TS -12.9192 62.4958 main 954 922 O________OP___ jtwc_sh SH261959 -12.9000 62.5000 -1 -12.9000 62.5000 TC 25 -12.9576 62.4875 1 7 266
1959072S13065 1959 27 SI MM NOT_NAMED 1959-03-14 15:00:00 TS -12.9607 62.0985 main 922 901 P________PP___ SH261959 -12.9500 62.1001 -1 -12.9500 62.1001 TC 25 -12.9822 62.0953 1 8 264
1959072S13065 1959 27 SI MM NOT_NAMED 1959-03-14 18:00:00 TS -13.0000 61.7000 main 901 886 O________OO___ jtwc_sh SH261959 -13.0000 61.7000 -1 -13.0000 61.7000 TC 25 -13.0000 61.7000 1 7 266
1959072S13065 1959 27 SI MM NOT_NAMED 1959-03-14 21:00:00 TS -13.0057 61.3565 main 886 868 P________PP___ SH261959 -13.0074 61.3500 -1 -13.0074 61.3500 TC 25 -13.0024 61.3695 1 7 270
1959072S13065 1959 27 SI MM NOT_NAMED 1959-03-15 00:00:00 TS -12.9996 61.0107 main 868 856 O________OP___ jtwc_sh SH261959 -13.0000 61.0000 -1 -13.0000 61.0000 TC 25 -12.9989 61.0322 1 7 271
1959072S13065 1959 27 SI MM NOT_NAMED 1959-03-15 03:00:00 TS -12.9985 60.6429 main 852 817 P________PP___ SH261959 -12.9998 60.6375 -1 -12.9998 60.6375 TC 30 -12.9960 60.6539 1 11 267
1959072S13065 1959 27 SI MM NOT_NAMED 1959-03-15 06:00:00 TS -13.0692 59.8385 reunion main 814 797 O____O___OO___ jtwc_sh SH261959 -13.0000 60.2000 -1 -13.9000 55.5000 99 9.90000 -13.0000 60.2000 TC 35 -13.0000 60.2000 2 16 265
1959072S13065 1959 27 SI MM NOT_NAMED 1959-03-15 09:00:00 TS -13.1343 59.0466 main 795 774 P____P___PP___ SH261959 -12.9924 59.6449 -1 -13.9501 55.5050 99 -12.9924 59.6449 TC 35 -13.0102 59.6208 2 15 265
1959072S13065 1959 27 SI MM NOT_NAMED 1959-03-15 12:00:00 TS -13.2075 58.2915 main 774 760 O____P___OP___ jtwc_sh SH261959 -13.0000 59.0000 -1 -14.0001 55.5013 99 -13.0000 59.0000 TC 35 -13.0281 58.9673 2 14 263
1959072S13065 1959 27 SI MM NOT_NAMED 1959-03-15 15:00:00 TS -13.2980 57.5938 main 760 742 P____P___PP___ SH261959 -13.0425 58.3075 -1 -14.0502 55.4799 99 -13.0425 58.3075 TC 35 -13.0569 58.2801 2 12 263
1959072S13065 1959 27 SI MM NOT_NAMED 1959-03-15 18:00:00 TS -13.3501 57.0580 main 739 687 O____P___OO___ jtwc_sh SH261959 -13.1000 57.6000 -1 -14.1003 55.4321 99 -13.1000 57.6000 TC 35 -13.1000 57.6000 2 10 264
1959072S13065 1959 27 SI MM NOT_NAMED 1959-03-15 21:00:00 TS -13.3979 56.5413 main 677 632 P____P___PP___ SH261959 -13.1424 56.9274 -1 -14.1503 55.3490 99 -13.1424 56.9274 TC 35 -13.1563 56.9614 2 10 264
1959072S13065 1959 27 SI MM NOT_NAMED 1959-03-16 00:00:00 TS -13.4569 56.0405 main 622 581 O____P___OP___ jtwc_sh SH261959 -13.2000 56.3000 -1 -14.2004 55.2219 99 -13.2000 56.3000 TC 35 -13.2273 56.3402 2 10 262
1959072S13065 1959 27 SI MM NOT_NAMED 1959-03-16 03:00:00 TS -13.5362 55.5577 main 581 527 P____P___PP___ SH261959 -13.2924 55.7200 -1 -14.2503 55.0419 99 -13.2924 55.7200 TC 35 -13.3096 55.7488 2 9 260
1959072S13065 1959 27 SI MM NOT_NAMED 1959-03-16 06:00:00 TS -13.6250 55.1000 reunion main 527 482 O____O___OO___ jtwc_sh SH261959 -13.4000 55.2000 -1 -14.3000 54.8000 99 9.90000 -13.4000 55.2000 TC 35 -13.4000 55.2000 2 9 259
1959072S13065 1959 27 SI MM NOT_NAMED 1959-03-16 09:00:00 TS -13.7093 54.6670 main 482 438 P____P___PP___ SH261959 -13.4998 54.7349 -1 -14.3495 54.4914 99 -13.4998 54.7349 TC 35 -13.4881 54.7068 2 8 258
1959072S13065 1959 27 SI MM NOT_NAMED 1959-03-16 12:00:00 TS -13.7960 54.2454 main 428 383 O____P___OP___ jtwc_sh SH261959 -13.6000 54.3000 -1 -14.3998 54.1269 99 -13.6000 54.3000 TC 35 -13.5841 54.2548 2 8 258
1959072S13065 1959 27 SI MM NOT_NAMED 1959-03-16 15:00:00 TS -13.8813 53.8117 main 383 339 P____P___PP___ SH261959 -13.6924 53.8499 -1 -14.4524 53.7215 99 -13.6924 53.8499 TC 35 -13.6882 53.8255 2 9 258
1959072S13065 1959 27 SI MM NOT_NAMED 1959-03-16 18:00:00 TS -13.9771 53.3725 main 339 286 O____P___OO___ jtwc_sh SH261959 -13.8000 53.4000 -1 -14.5084 53.2899 99 -13.8000 53.4000 TC 35 -13.8000 53.4000 2 9 256
1959072S13065 1959 27 SI MM NOT_NAMED 1959-03-16 21:00:00 TS -14.0989 52.9142 main 286 242 P____P___PP___ SH261959 -13.9499 52.9500 -1 -14.5696 52.8471 99 -13.9499 52.9500 TC 35 -13.9261 52.9096 2 9 254
1959072S13065 1959 27 SI MM NOT_NAMED 1959-03-17 00:00:00 TS -14.2238 52.4583 main 242 190 O____P___OP___ jtwc_sh SH261959 -14.1000 52.5000 -1 -14.6374 52.4079 99 -14.1000 52.5000 TC 35 -14.0578 52.4253 2 9 255
1959072S13065 1959 27 SI MM NOT_NAMED 1959-03-17 03:00:00 TS -14.3286 52.0014 main 190 148 P____P___PP___ SH261959 -14.2076 52.0200 -1 -14.7136 51.9873 99 -14.2076 52.0200 TC 35 -14.1856 51.9783 2 9 256
1959072S13065 1959 27 SI MM NOT_NAMED 1959-03-17 06:00:00 TS -14.4250 51.6000 reunion main 148 116 O____O___OO___ jtwc_sh SH261959 -14.3000 51.6000 -1 -14.8000 51.6000 99 9.90000 -14.3000 51.6000 TC 35 -14.3000 51.6000 2 7 254
1959072S13065 1959 27 SI MM NOT_NAMED 1959-03-17 09:00:00 TS -14.5252 51.3053 main 116 92 P____P___PP___ SH261959 -14.4074 51.3050 -1 -14.9011 51.2793 99 -14.4074 51.3050 TC 35 -14.3848 51.3319 2 5 249
1959072S13065 1959 27 SI MM NOT_NAMED 1959-03-17 12:00:00 TS -14.6175 51.0788 main 92 68 O____P___OP___ jtwc_sh SH261959 -14.5000 51.1000 -1 -15.0131 50.9832 99 -14.5000 51.1000 TC 35 -14.4568 51.1321 2 4 247
1959072S13065 1959 27 SI MM NOT_NAMED 1959-03-17 15:00:00 TS -14.6898 50.8944 main 68 44 P____P___PP___ SH261959 -14.5499 50.9499 -1 -15.1338 50.7112 99 -14.5499 50.9499 TC 35 -14.5255 50.9663 2 4 247
1959072S13065 1959 27 SI MM NOT_NAMED 1959-03-17 18:00:00 TS -14.7654 50.7158 main 44 21 O____P___OO___ jtwc_sh SH261959 -14.6000 50.8000 -1 -15.2614 50.4630 99 -14.6000 50.8000 TC 35 -14.6000 50.8000 2 4 246
1959072S13065 1959 27 SI MM NOT_NAMED 1959-03-17 21:00:00 TS -14.8669 50.4788 main 21 0 P____P___PP___ SH261959 -14.6925 50.5575 -1 -15.3938 50.2382 99 -14.6925 50.5575 TC 35 -14.6888 50.5619 2 5 245
1959072S13065 1959 27 SI MM NOT_NAMED 1959-03-18 00:00:00 TS -14.9786 50.2391 main 0 0 O____P___OP___ jtwc_sh SH261959 -14.8000 50.3000 -1 -15.5291 50.0363 99 -14.8000 50.3000 TC 35 -14.7851 50.3201 2 5 243
1959072S13065 1959 27 SI MM NOT_NAMED 1959-03-18 03:00:00 TS -15.0885 50.0263 main 0 0 P____P___PP___ SH261959 -14.9000 50.0775 -1 -15.6652 49.8570 99 -14.9000 50.0775 TC 35 -14.8888 50.0932 2 4 239
1959072S13065 1959 27 SI MM NOT_NAMED 1959-03-18 06:00:00 TS -15.2000 49.8500 reunion main 0 0 O____O___OO___ jtwc_sh SH261959 -15.0000 49.9000 -1 -15.8000 49.7000 99 9.90000 -15.0000 49.9000 TC 35 -15.0000 49.9000 2 4 234
1959072S13065 1959 27 SI MM NOT_NAMED 1959-03-18 09:00:00 TS -15.3073 49.7187 main 0 0 P____P___PP___ SH261959 -15.0925 49.7850 -1 -15.9266 49.5450 99 -15.0925 49.7850 TC 35 -15.1177 49.7599 2 3 225
1959072S13065 1959 27 SI MM NOT_NAMED 1959-03-18 12:00:00 TS -15.4240 49.6172 main 0 0 O____P___OP___ jtwc_sh SH261959 -15.2000 49.7000 -1 -16.0535 49.4140 99 -15.2000 49.7000 TC 35 -15.2424 49.6549 2 3 217
1959072S13065 1959 27 SI MM NOT_NAMED 1959-03-18 15:00:00 TS -15.5628 49.5193 main 0 0 P____P___PP___ SH261959 -15.3500 49.6000 -1 -16.1804 49.3047 99 -15.3500 49.6000 TC 35 -15.3709 49.5724 2 3 213
1959072S13065 1959 27 SI MM NOT_NAMED 1959-03-18 18:00:00 TS -15.7017 49.4286 main 0 0 O____P___OO___ jtwc_sh SH261959 -15.5000 49.5000 -1 -16.3068 49.2146 99 -15.5000 49.5000 TC 35 -15.5000 49.5000 2 3 215
1959072S13065 1959 27 SI MM NOT_NAMED 1959-03-18 21:00:00 TS -15.8133 49.3350 main 0 0 P____P___PP___ SH261959 -15.6000 49.3925 -1 -16.4325 49.1415 99 -15.6000 49.3925 TC 35 -15.6209 49.4137 2 3 217
1959072S13065 1959 27 SI MM NOT_NAMED 1959-03-19 00:00:00 TS -15.9248 49.2545 main 0 0 O____P___OP___ jtwc_sh SH261959 -15.7000 49.3000 -1 -16.5568 49.0829 99 -15.7000 49.3000 TC 35 -15.7425 49.3350 2 3 208
1959072S13065 1959 27 SI MM NOT_NAMED 1959-03-19 03:00:00 TS -16.0581 49.1963 main 0 0 P____P___PP___ SH261959 -15.8425 49.2425 -1 -16.6795 49.0365 99 -15.8425 49.2425 TC 35 -15.8678 49.2637 2 3 199
1959072S13065 1959 27 SI MM NOT_NAMED 1959-03-19 06:00:00 TS -16.2000 49.1500 reunion main 0 0 O____O___OO___ jtwc_sh SH261959 -16.0000 49.2000 -1 -16.8000 49.0000 99 9.90000 -16.0000 49.2000 TC 35 -16.0000 49.2000 2 3 199
1959072S13065 1959 27 SI MM NOT_NAMED 1959-03-19 09:00:00 TS -16.3351 49.0937 main 0 0 P____P___PP___ SH261959 -16.1500 49.1500 -1 -16.9056 48.9443 99 -16.1500 49.1500 TC 35 -16.1347 49.1307 2 3 201
1959072S13065 1959 27 SI MM NOT_NAMED 1959-03-19 12:00:00 TS -16.4713 49.0424 main 0 0 O____P___OP___ jtwc_sh SH261959 -16.3000 49.1000 -1 -17.0077 48.8995 99 -16.3000 49.1000 TC 35 -16.2775 49.0701 2 3 200
1959072S13065 1959 27 SI MM NOT_NAMED 1959-03-19 15:00:00 TS -16.6064 48.9939 main 0 0 P____P___PP___ SH261959 -16.4425 49.0425 -1 -17.1090 48.8662 99 -16.4425 49.0425 TC 35 -16.4316 49.0244 2 3 196
1959072S13065 1959 27 SI MM NOT_NAMED 1959-03-19 18:00:00 TS -16.7531 48.9613 main 0 0 O____P___OO___ jtwc_sh SH261959 -16.6000 49.0000 -1 -17.2123 48.8453 99 -16.6000 49.0000 TC 35 -16.6000 49.0000 2 3 186
1959072S13065 1959 27 SI MM NOT_NAMED 1959-03-19 21:00:00 TS -16.9237 48.9507 main 0 0 P____P___PP___ SH261959 -16.7925 48.9850 -1 -17.3203 48.8374 99 -16.7925 48.9850 TC 35 -16.7897 48.9953 2 4 0
1959072S13065 1959 27 SI MM NOT_NAMED 1959-03-20 00:00:00 TS -17.1071 48.9640 main 0 0 O____P___OP___ jtwc_sh SH261959 -17.0000 49.0000 -1 -17.4358 48.8434 99 -17.0000 49.0000 TC 35 -16.9925 49.0125 2 4 173
1959072S13065 1959 27 SI MM NOT_NAMED 1959-03-20 03:00:00 TS -17.2901 48.9994 main 0 0 P____P___PP___ SH261959 -17.2000 49.0425 -1 -17.5614 48.8640 99 -17.2000 49.0425 TC 35 -17.1990 49.0484 2 4 169
1959072S13065 1959 27 SI MM NOT_NAMED 1959-03-20 06:00:00 TS -17.4750 49.0500 reunion main 0 0 O____O___OO___ jtwc_sh SH261959 -17.4000 49.1000 -1 -17.7000 48.9000 99 9.90000 -17.4000 49.1000 TC 35 -17.4000 49.1000 2 4 165
1959072S13065 1959 27 SI MM NOT_NAMED 1959-03-20 09:00:00 TS -17.6692 49.0984 main 0 0 P____P___PP___ SH261959 -17.6075 49.1425 -1 -17.8635 48.9482 99 -17.6075 49.1425 TC 35 -17.5984 49.1606 2 4 165
1959072S13065 1959 27 SI MM NOT_NAMED 1959-03-20 12:00:00 TS -17.8569 49.1620 main 0 0 O____P___OP___ jtwc_sh SH261959 -17.8000 49.2000 -1 -18.0401 49.0131 99 -17.8000 49.2000 TC 35 -17.7875 49.2349 2 4 158
1959072S13065 1959 27 SI MM NOT_NAMED 1959-03-20 15:00:00 TS -18.0324 49.2522 main 0 0 P____P___PP___ SH261959 -17.9725 49.3000 -1 -18.2267 49.0919 99 -17.9725 49.3000 TC 35 -17.9578 49.3168 2 4 152
1959072S13065 1959 27 SI MM NOT_NAMED 1959-03-20 18:00:00 TS -18.1800 49.3455 main 0 0 O____P___OO___ jtwc_sh SH261959 -18.1000 49.4000 -1 -18.4201 49.1820 99 -18.1000 49.4000 TC 35 -18.1000 49.4000 2 3 149
1959072S13065 1959 27 SI MM NOT_NAMED 1959-03-20 21:00:00 TS -18.2758 49.4069 main 10 10 P____P___PP___ SH261959 -18.1575 49.4500 -1 -18.6173 49.2806 99 -18.1575 49.4500 TC 35 -18.1711 49.4470 2 2 147
1959072S13065 1959 27 SI MM NOT_NAMED 1959-03-21 00:00:00 TS -18.3587 49.4708 main 21 21 O____P___OP___ jtwc_sh SH261959 -18.2000 49.5000 -1 -18.8151 49.3850 99 -18.2000 49.5000 TC 35 -18.2198 49.4982 2 2 142
1959072S13065 1959 27 SI MM NOT_NAMED 1959-03-21 03:00:00 TS -18.4585 49.5557 main 33 33 P____P___PP___ SH261959 -18.2700 49.5776 -1 -19.0104 49.4924 99 -18.2700 49.5776 TC 35 -18.2835 49.5753 2 3 141
1959072S13065 1959 27 SI MM NOT_NAMED 1959-03-21 06:00:00 TS -18.6000 49.6750 reunion main 47 47 O____O___OO___ jtwc_sh SH261959 -18.4000 49.7000 -1 -19.2000 49.6000 99 9.90000 -18.4000 49.7000 TC 35 -18.4000 49.7000 2 4 142
1959072S13065 1959 27 SI MM NOT_NAMED 1959-03-21 09:00:00 TS -18.8109 49.8449 main 64 64 P____P___PP___ SH261959 -18.6200 49.8701 -1 -19.3738 49.7200 99 -18.6200 49.8701 TC 35 -18.6300 49.9193 2 6 142
1959072S13065 1959 27 SI MM NOT_NAMED 1959-03-21 12:00:00 TS -19.0641 50.0573 main 104 104 O____P___OP___ jtwc_sh SH261959 -18.9000 50.1000 -1 -19.5436 49.8451 99 -18.9000 50.1000 TC 35 -18.9130 50.1840 2 7 140
1959072S13065 1959 27 SI MM NOT_NAMED 1959-03-21 15:00:00 TS -19.3348 50.3066 main 130 130 P____P___PP___ SH261959 -19.2076 50.3998 -1 -19.7098 49.9699 99 -19.2076 50.3998 TC 50 -19.2144 50.4568 2 7 139
1959072S13065 1959 27 SI MM NOT_NAMED 1959-03-21 18:00:00 TS -19.5932 50.5473 main 161 161 O____P___OO___ jtwc_sh SH261959 -19.5000 50.7000 -1 -19.8727 50.0891 99 -19.5000 50.7000 TC 65 -19.5000 50.7000 4 6 138
1959072S13065 1959 27 SI MM NOT_NAMED 1959-03-21 21:00:00 TS -19.7960 50.7435 main 190 190 P____P___PP___ SH261959 -19.7150 50.9376 -1 -20.0328 50.1972 99 -19.7150 50.9376 TC 65 -19.7214 50.9017 4 5 140
1959072S13065 1959 27 SI MM NOT_NAMED 1959-03-22 00:00:00 TS -19.9782 50.8878 main 218 218 O____P___OP___ jtwc_sh SH261959 -19.9000 51.1000 -1 -20.1904 50.2886 99 -19.9000 51.1000 TC 65 -19.9223 51.0625 4 4 149
1959072S13065 1959 27 SI MM NOT_NAMED 1959-03-22 03:00:00 TS -20.1645 50.9788 main 230 230 P____P___PP___ SH261959 -20.1000 51.1950 -1 -20.3460 50.3581 99 -20.1000 51.1950 TC 65 -20.1121 51.1671 4 4 165
1959072S13065 1959 27 SI MM NOT_NAMED 1959-03-22 06:00:00 TS -20.3500 51.0000 reunion main 233 233 O____O___OO___ jtwc_sh SH261959 -20.3000 51.2000 -1 -20.5000 50.4000 99 9.90000 -20.3000 51.2000 TC 65 -20.3000 51.2000 4 4 0
1959072S13065 1959 27 SI MM NOT_NAMED 1959-03-22 09:00:00 TS -20.5504 50.9602 main 239 229 P____P___PP___ SH261959 -20.5000 51.1300 -1 -20.6773 50.4251 99 -20.5000 51.1300 TC 65 -20.5243 51.1555 4 4 197
1959072S13065 1959 27 SI MM NOT_NAMED 1959-03-22 12:00:00 TS -20.7501 50.8667 main 236 226 O____P___OP___ jtwc_sh SH261959 -20.7000 51.0000 -1 -20.8553 50.4261 99 -20.7000 51.0000 TC 65 -20.7450 51.0406 4 4 206
1959072S13065 1959 27 SI MM NOT_NAMED 1959-03-22 15:00:00 TS -20.9507 50.7495 main 226 221 P____P___PP___ SH261959 -20.9150 50.8575 -1 -21.0298 50.4024 99 -20.9150 50.8575 TC 65 -20.9431 50.8804 4 4 212
1959072S13065 1959 27 SI MM NOT_NAMED 1959-03-22 18:00:00 TS -21.1241 50.6134 main 221 216 O____P___OO___ jtwc_sh SH261959 -21.1000 50.7000 -1 -21.1965 50.3536 99 -21.1000 50.7000 TC 65 -21.1000 50.7000 4 4 219
1959072S13065 1959 27 SI MM NOT_NAMED 1959-03-22 21:00:00 TS -21.2530 50.4874 main 220 210 P____P___PP___ SH261959 -21.2300 50.5575 -1 -21.3511 50.2794 99 -21.2300 50.5575 TC 50 -21.2011 50.5555 4 3 230
1959072S13065 1959 27 SI MM NOT_NAMED 1959-03-23 00:00:00 TS -21.3373 50.3435 main 199 191 O____P___OP___ jtwc_sh SH261959 -21.3000 50.4000 -1 -21.4895 50.1792 99 -21.3000 50.4000 TC 35 -21.2598 50.3948 4 3 246
1959072S13065 1959 27 SI MM NOT_NAMED 1959-03-23 03:00:00 TS -21.3814 50.1736 main 191 171 P____P___PP___ SH261959 -21.3150 50.2150 -1 -21.6072 50.0529 99 -21.3150 50.2150 TC 35 -21.2886 50.2118 4 3 260
1959072S13065 1959 27 SI MM NOT_NAMED 1959-03-23 06:00:00 TS -21.4000 49.9750 reunion main 171 151 O____O___OO___ jtwc_sh SH261959 -21.3000 50.0000 -1 -21.7000 49.9000 99 9.90000 -21.3000 50.0000 TC 35 -21.3000 50.0000 2 4 265
1959072S13065 1959 27 SI MM NOT_NAMED 1959-03-23 09:00:00 TS -21.4188 49.7511 main 151 122 P____P___PP___ SH261959 -21.3000 49.7650 -1 -21.7649 49.7208 99 -21.3000 49.7650 TC 35 -21.3104 49.7536 2 4 266
1959072S13065 1959 27 SI MM NOT_NAMED 1959-03-23 12:00:00 TS -21.4279 49.4995 main 122 93 O____P___OP___ jtwc_sh SH261959 -21.3000 49.5000 -1 -21.8041 49.5182 99 -21.3000 49.5000 TC 35 -21.3076 49.4798 2 5 269
1959072S13065 1959 27 SI MM NOT_NAMED 1959-03-23 15:00:00 TS -21.4305 49.2216 main 93 72 P____P___PP___ SH261959 -21.3000 49.2000 -1 -21.8211 49.2955 99 -21.3000 49.2000 TC 35 -21.3010 49.1911 2 5 270
1959072S13065 1959 27 SI MM NOT_NAMED 1959-03-23 18:00:00 TS -21.4299 48.9390 main 62 41 O____P___OO___ jtwc_sh SH261959 -21.3000 48.9000 -1 -21.8196 49.0561 99 -21.3000 48.9000 TC 35 -21.3000 48.9000 2 5 271
1959072S13065 1959 27 SI MM NOT_NAMED 1959-03-23 21:00:00 TS -21.4250 48.6800 main 41 10 P____P___PP___ SH261959 -21.2924 48.6500 -1 -21.8031 48.8035 99 -21.2924 48.6500 TC 35 -21.3120 48.6164 2 5 270
1959072S13065 1959 27 SI MM NOT_NAMED 1959-03-24 00:00:00 TS -21.4276 48.4203 main 10 0 O____P___OP___ jtwc_sh SH261959 -21.3000 48.4000 -1 -21.7753 48.5410 99 -21.3000 48.4000 TC 35 -21.3352 48.3402 2 5 268
1959072S13065 1959 27 SI MM NOT_NAMED 1959-03-24 03:00:00 TS -21.4465 48.1415 main 0 0 P____P___PP___ SH261959 -21.3402 48.1126 -1 -21.7397 48.2721 99 -21.3402 48.1126 TC 35 -21.3659 48.0689 2 5 265
1959072S13065 1959 27 SI MM NOT_NAMED 1959-03-24 06:00:00 TS -21.4750 47.8500 reunion main 0 O____O___OO___ jtwc_sh SH261959 -21.4000 47.8000 -1 -21.7000 48.0000 99 9.90000 -21.4000 47.8000 TC 35 -21.4000 47.8000 2 5 264

About IBTrACS Database

This database is a web-friendly format of International Best Track Archive for Climate Stewardship (IBTrACS), a global best track data archive curated by NOAA dating back to 1842.

Updated: 2021-10-08